Nasco Pearl — VRHS2 — position and weather

sailwx.info

Track history (hours):
 
Tides and Currents Weather Stations Pressure Air Temp Water Temp Dewpoint Dewpoint Depression Visibility Wind Speed Wind Dir Waves Ship Positions

Nasco Pearl

Last reported at 2016-Sep-09 10:32 UTC. Time now 2016-Sep-26 20:52 UTC.
Position N 01°14' E 103°56'.
Warning: this ship's position is 17 days out of date.

Length 189 m; draft 13.1 m.

Type: Cargo ship. MMSI: 477982400.

Date/timePositionNaut miles runAvg speedWind from/ knotsBaromVisibWave heightAir tempDewpointWater temp
2016-Sep-09 10:32N 01°14' E 103°56'2 0.2
2016-Sep-09 01:18N 01°17' E 103°57'2 1.9
2016-Sep-09 00:25N 01°16' E 103°58'  
2016-Aug-30 20:09N 38°18' E 121°26'1014.0
2016-Aug-30 19:29N 38°23' E 121°16'1313.7
2016-Aug-30 18:30N 38°30' E 121°01'1212.1
2016-Aug-30 17:33N 38°36' E 120°48'1211.7
2016-Aug-30 16:33N 38°37' E 120°33'1212.1
2016-Aug-30 15:32N 38°39' E 120°18'  
Track history (hours):
 
Tides and Currents Weather Stations Pressure Air Temp Water Temp Dewpoint Dewpoint Depression Visibility Wind Speed Wind Dir Waves Ship Positions

Nasco Pearl

Last reported at 2016-Sep-09 10:32 UTC. Time now 2016-Sep-26 20:52 UTC.
Position N 01°14' E 103°56'.
Warning: this ship's position is 17 days out of date.

Length 189 m; draft 13.1 m.

Type: Cargo ship. MMSI: 477982400.

Date/timePositionNaut miles runAvg speedWind from/ knotsBaromVisibWave heightAir tempDewpointWater temp
2016-Sep-09 10:32N 01°14' E 103°56'2 0.2
2016-Sep-09 01:18N 01°17' E 103°57'2 1.9
2016-Sep-09 00:25N 01°16' E 103°58'  
2016-Aug-30 20:09N 38°18' E 121°26'1014.0
2016-Aug-30 19:29N 38°23' E 121°16'1313.7
2016-Aug-30 18:30N 38°30' E 121°01'1212.1
2016-Aug-30 17:33N 38°36' E 120°48'1211.7
2016-Aug-30 16:33N 38°37' E 120°33'1212.1
2016-Aug-30 15:32N 38°39' E 120°18'  

Dump ship's entire track history